sensor_id;sensor_type;location;lat;lon;timestamp;P1;durP1;ratioP1;P2;durP2;ratioP2
23590;SDS011;11973;52.098;7.582;2023-01-31T00:00:50;15.85;;;5.35;;
23590;SDS011;11973;52.098;7.582;2023-01-31T00:03:16;17.77;;;4.47;;
23590;SDS011;11973;52.098;7.582;2023-01-31T00:05:41;28.52;;;11.93;;
23590;SDS011;11973;52.098;7.582;2023-01-31T00:08:07;18.23;;;4.13;;
23590;SDS011;11973;52.098;7.582;2023-01-31T00:10:33;14.15;;;3.53;;
23590;SDS011;11973;52.098;7.582;2023-01-31T00:12:59;20.70;;;3.92;;
23590;SDS011;11973;52.098;7.582;2023-01-31T00:15:25;29.35;;;4.95;;
23590;SDS011;11973;52.098;7.582;2023-01-31T00:17:50;15.95;;;3.75;;
23590;SDS011;11973;52.098;7.582;2023-01-31T00:20:16;25.55;;;4.30;;
23590;SDS011;11973;52.098;7.582;2023-01-31T00:22:43;15.48;;;3.42;;
23590;SDS011;11973;52.098;7.582;2023-01-31T00:25:08;12.88;;;4.00;;
23590;SDS011;11973;52.098;7.582;2023-01-31T00:27:34;15.95;;;4.00;;
23590;SDS011;11973;52.098;7.582;2023-01-31T00:30:00;20.55;;;3.80;;
23590;SDS011;11973;52.098;7.582;2023-01-31T00:32:25;17.42;;;3.80;;
23590;SDS011;11973;52.098;7.582;2023-01-31T00:34:52;19.83;;;3.92;;
23590;SDS011;11973;52.098;7.582;2023-01-31T00:37:18;17.73;;;3.22;;
23590;SDS011;11973;52.098;7.582;2023-01-31T00:39:45;15.85;;;3.75;;
23590;SDS011;11973;52.098;7.582;2023-01-31T00:42:10;14.65;;;3.50;;
23590;SDS011;11973;52.098;7.582;2023-01-31T00:44:38;16.30;;;3.85;;
23590;SDS011;11973;52.098;7.582;2023-01-31T00:47:04;14.82;;;3.33;;
23590;SDS011;11973;52.098;7.582;2023-01-31T00:49:29;18.80;;;3.88;;
23590;SDS011;11973;52.098;7.582;2023-01-31T00:51:55;17.23;;;3.95;;
23590;SDS011;11973;52.098;7.582;2023-01-31T00:54:21;18.48;;;3.78;;
23590;SDS011;11973;52.098;7.582;2023-01-31T00:56:47;15.38;;;3.95;;
23590;SDS011;11973;52.098;7.582;2023-01-31T00:59:13;12.98;;;3.28;;
23590;SDS011;11973;52.098;7.582;2023-01-31T01:01:39;12.27;;;3.50;;
23590;SDS011;11973;52.098;7.582;2023-01-31T01:04:05;20.73;;;4.47;;
23590;SDS011;11973;52.098;7.582;2023-01-31T01:06:32;18.85;;;4.40;;
23590;SDS011;11973;52.098;7.582;2023-01-31T01:08:58;16.15;;;3.45;;
23590;SDS011;11973;52.098;7.582;2023-01-31T01:11:31;17.40;;;3.88;;
23590;SDS011;11973;52.098;7.582;2023-01-31T01:13:58;17.30;;;3.97;;
23590;SDS011;11973;52.098;7.582;2023-01-31T01:16:26;18.75;;;3.28;;
23590;SDS011;11973;52.098;7.582;2023-01-31T01:18:55;14.75;;;3.13;;
23590;SDS011;11973;52.098;7.582;2023-01-31T01:21:26;15.45;;;3.42;;
23590;SDS011;11973;52.098;7.582;2023-01-31T01:23:54;18.88;;;3.00;;
23590;SDS011;11973;52.098;7.582;2023-01-31T01:26:22;15.68;;;3.53;;
23590;SDS011;11973;52.098;7.582;2023-01-31T01:28:50;15.70;;;3.72;;
23590;SDS011;11973;52.098;7.582;2023-01-31T01:31:17;15.13;;;3.40;;
23590;SDS011;11973;52.098;7.582;2023-01-31T01:33:47;13.48;;;3.28;;
23590;SDS011;11973;52.098;7.582;2023-01-31T01:36:14;14.80;;;3.20;;
23590;SDS011;11973;52.098;7.582;2023-01-31T01:38:42;14.30;;;3.35;;
23590;SDS011;11973;52.098;7.582;2023-01-31T01:41:10;19.30;;;3.78;;
23590;SDS011;11973;52.098;7.582;2023-01-31T01:43:50;14.23;;;4.18;;
23590;SDS011;11973;52.098;7.582;2023-01-31T01:49:26;25.73;;;8.45;;
23590;SDS011;11973;52.098;7.582;2023-01-31T01:51:58;17.73;;;4.45;;
23590;SDS011;11973;52.098;7.582;2023-01-31T01:54:27;35.08;;;8.05;;
23590;SDS011;11973;52.098;7.582;2023-01-31T01:56:59;20.08;;;4.60;;
23590;SDS011;11973;52.098;7.582;2023-01-31T01:59:30;21.77;;;5.05;;
23590;SDS011;11973;52.098;7.582;2023-01-31T02:02:03;21.05;;;5.47;;
23590;SDS011;11973;52.098;7.582;2023-01-31T02:04:31;16.02;;;3.72;;
23590;SDS011;11973;52.098;7.582;2023-01-31T02:07:02;17.83;;;4.43;;
23590;SDS011;11973;52.098;7.582;2023-01-31T02:11:58;22.25;;;4.75;;
23590;SDS011;11973;52.098;7.582;2023-01-31T02:14:23;19.05;;;3.88;;
23590;SDS011;11973;52.098;7.582;2023-01-31T02:16:50;16.85;;;4.25;;
23590;SDS011;11973;52.098;7.582;2023-01-31T02:19:27;17.65;;;4.68;;
23590;SDS011;11973;52.098;7.582;2023-01-31T02:36:46;32.05;;;9.60;;
23590;SDS011;11973;52.098;7.582;2023-01-31T02:50:56;21.40;;;4.53;;
23590;SDS011;11973;52.098;7.582;2023-01-31T02:53:33;17.48;;;4.65;;
23590;SDS011;11973;52.098;7.582;2023-01-31T02:56:13;13.48;;;4.13;;
23590;SDS011;11973;52.098;7.582;2023-01-31T02:58:46;17.08;;;4.18;;
23590;SDS011;11973;52.098;7.582;2023-01-31T03:01:28;15.75;;;3.70;;
23590;SDS011;11973;52.098;7.582;2023-01-31T03:03:58;13.20;;;3.70;;
23590;SDS011;11973;52.098;7.582;2023-01-31T03:11:51;20.13;;;4.95;;
23590;SDS011;11973;52.098;7.582;2023-01-31T03:19:57;17.38;;;3.95;;
23590;SDS011;11973;52.098;7.582;2023-01-31T03:22:37;18.02;;;4.03;;
23590;SDS011;11973;52.098;7.582;2023-01-31T03:25:07;16.90;;;4.15;;
23590;SDS011;11973;52.098;7.582;2023-01-31T03:27:37;10.98;;;3.78;;
23590;SDS011;11973;52.098;7.582;2023-01-31T03:30:08;15.05;;;3.40;;
23590;SDS011;11973;52.098;7.582;2023-01-31T03:32:45;12.77;;;3.50;;
23590;SDS011;11973;52.098;7.582;2023-01-31T03:35:18;16.42;;;4.05;;
23590;SDS011;11973;52.098;7.582;2023-01-31T03:38:04;14.80;;;4.03;;
23590;SDS011;11973;52.098;7.582;2023-01-31T03:43:26;17.13;;;3.67;;
23590;SDS011;11973;52.098;7.582;2023-01-31T03:46:18;16.25;;;3.92;;
23590;SDS011;11973;52.098;7.582;2023-01-31T03:48:52;13.20;;;3.17;;
23590;SDS011;11973;52.098;7.582;2023-01-31T03:51:22;18.23;;;4.32;;
23590;SDS011;11973;52.098;7.582;2023-01-31T03:53:52;16.95;;;4.18;;
23590;SDS011;11973;52.098;7.582;2023-01-31T03:56:45;15.48;;;3.63;;
23590;SDS011;11973;52.098;7.582;2023-01-31T03:59:18;15.65;;;3.45;;
23590;SDS011;11973;52.098;7.582;2023-01-31T04:01:47;17.17;;;4.18;;
23590;SDS011;11973;52.098;7.582;2023-01-31T04:04:22;13.93;;;3.78;;
23590;SDS011;11973;52.098;7.582;2023-01-31T04:06:52;15.90;;;4.00;;
23590;SDS011;11973;52.098;7.582;2023-01-31T04:09:19;12.85;;;4.32;;
23590;SDS011;11973;52.098;7.582;2023-01-31T04:11:46;14.25;;;3.53;;
23590;SDS011;11973;52.098;7.582;2023-01-31T04:14:13;9.73;;;3.85;;
23590;SDS011;11973;52.098;7.582;2023-01-31T04:16:40;13.35;;;3.83;;
23590;SDS011;11973;52.098;7.582;2023-01-31T04:19:06;12.10;;;3.58;;
23590;SDS011;11973;52.098;7.582;2023-01-31T04:21:32;11.23;;;3.67;;
23590;SDS011;11973;52.098;7.582;2023-01-31T04:23:57;13.77;;;3.63;;
23590;SDS011;11973;52.098;7.582;2023-01-31T04:26:23;10.45;;;3.55;;
23590;SDS011;11973;52.098;7.582;2023-01-31T04:28:50;10.00;;;3.38;;
23590;SDS011;11973;52.098;7.582;2023-01-31T04:31:15;13.30;;;3.90;;
23590;SDS011;11973;52.098;7.582;2023-01-31T04:33:41;10.15;;;3.70;;
23590;SDS011;11973;52.098;7.582;2023-01-31T04:36:07;15.85;;;4.10;;
23590;SDS011;11973;52.098;7.582;2023-01-31T04:38:33;15.57;;;3.50;;
23590;SDS011;11973;52.098;7.582;2023-01-31T04:40:59;11.63;;;3.35;;
23590;SDS011;11973;52.098;7.582;2023-01-31T04:43:25;7.60;;;3.05;;
23590;SDS011;11973;52.098;7.582;2023-01-31T04:45:51;16.48;;;3.53;;
23590;SDS011;11973;52.098;7.582;2023-01-31T04:48:17;11.30;;;3.38;;
23590;SDS011;11973;52.098;7.582;2023-01-31T04:50:43;13.38;;;3.15;;
23590;SDS011;11973;52.098;7.582;2023-01-31T04:53:08;13.05;;;3.40;;
23590;SDS011;11973;52.098;7.582;2023-01-31T04:55:34;12.50;;;3.70;;
23590;SDS011;11973;52.098;7.582;2023-01-31T04:58:00;11.57;;;3.38;;
23590;SDS011;11973;52.098;7.582;2023-01-31T05:00:26;9.65;;;3.47;;
23590;SDS011;11973;52.098;7.582;2023-01-31T05:02:52;18.80;;;4.10;;
23590;SDS011;11973;52.098;7.582;2023-01-31T05:05:18;14.75;;;3.45;;
23590;SDS011;11973;52.098;7.582;2023-01-31T05:07:44;20.08;;;4.13;;
23590;SDS011;11973;52.098;7.582;2023-01-31T05:10:11;12.15;;;3.63;;
23590;SDS011;11973;52.098;7.582;2023-01-31T05:12:37;14.48;;;4.20;;
23590;SDS011;11973;52.098;7.582;2023-01-31T06:01:31;20.90;;;7.72;;
23590;SDS011;11973;52.098;7.582;2023-01-31T06:03:57;20.98;;;8.07;;
23590;SDS011;11973;52.098;7.582;2023-01-31T06:06:23;19.38;;;8.20;;
23590;SDS011;11973;52.098;7.582;2023-01-31T06:08:48;19.92;;;8.45;;
23590;SDS011;11973;52.098;7.582;2023-01-31T06:11:14;22.42;;;8.48;;
23590;SDS011;11973;52.098;7.582;2023-01-31T06:13:40;19.80;;;7.95;;
23590;SDS011;11973;52.098;7.582;2023-01-31T06:16:09;26.95;;;9.00;;
23590;SDS011;11973;52.098;7.582;2023-01-31T06:18:35;18.88;;;8.15;;
23590;SDS011;11973;52.098;7.582;2023-01-31T06:21:01;24.38;;;8.55;;
23590;SDS011;11973;52.098;7.582;2023-01-31T06:23:27;26.80;;;9.23;;
23590;SDS011;11973;52.098;7.582;2023-01-31T06:25:53;23.95;;;8.80;;
23590;SDS011;11973;52.098;7.582;2023-01-31T06:28:20;20.77;;;8.27;;
23590;SDS011;11973;52.098;7.582;2023-01-31T06:30:46;22.58;;;8.98;;
23590;SDS011;11973;52.098;7.582;2023-01-31T06:33:12;20.98;;;8.25;;
23590;SDS011;11973;52.098;7.582;2023-01-31T06:35:38;22.17;;;8.70;;
23590;SDS011;11973;52.098;7.582;2023-01-31T06:38:05;21.05;;;8.70;;
23590;SDS011;11973;52.098;7.582;2023-01-31T06:40:31;20.27;;;8.13;;
23590;SDS011;11973;52.098;7.582;2023-01-31T06:42:57;22.13;;;8.55;;
23590;SDS011;11973;52.098;7.582;2023-01-31T06:45:23;22.75;;;9.35;;
23590;SDS011;11973;52.098;7.582;2023-01-31T06:47:49;18.27;;;8.65;;
23590;SDS011;11973;52.098;7.582;2023-01-31T06:50:14;20.25;;;7.78;;
23590;SDS011;11973;52.098;7.582;2023-01-31T06:52:40;19.60;;;8.20;;
23590;SDS011;11973;52.098;7.582;2023-01-31T06:55:06;16.75;;;8.68;;
23590;SDS011;11973;52.098;7.582;2023-01-31T06:57:32;21.13;;;8.43;;
23590;SDS011;11973;52.098;7.582;2023-01-31T06:59:58;18.05;;;8.68;;
23590;SDS011;11973;52.098;7.582;2023-01-31T07:02:24;24.17;;;9.25;;
23590;SDS011;11973;52.098;7.582;2023-01-31T07:04:50;20.05;;;9.38;;
23590;SDS011;11973;52.098;7.582;2023-01-31T07:07:16;24.73;;;8.98;;
23590;SDS011;11973;52.098;7.582;2023-01-31T07:09:41;16.90;;;9.18;;
23590;SDS011;11973;52.098;7.582;2023-01-31T07:12:07;22.48;;;10.02;;
23590;SDS011;11973;52.098;7.582;2023-01-31T07:14:33;25.40;;;10.55;;
23590;SDS011;11973;52.098;7.582;2023-01-31T07:16:58;22.77;;;9.57;;
23590;SDS011;11973;52.098;7.582;2023-01-31T07:19:24;22.67;;;10.35;;
23590;SDS011;11973;52.098;7.582;2023-01-31T07:21:50;26.90;;;11.80;;
23590;SDS011;11973;52.098;7.582;2023-01-31T07:24:16;21.40;;;11.55;;
23590;SDS011;11973;52.098;7.582;2023-01-31T07:26:42;24.92;;;11.57;;
23590;SDS011;11973;52.098;7.582;2023-01-31T07:29:08;27.20;;;11.63;;
23590;SDS011;11973;52.098;7.582;2023-01-31T07:31:34;28.50;;;12.50;;
23590;SDS011;11973;52.098;7.582;2023-01-31T07:33:59;31.77;;;13.13;;
23590;SDS011;11973;52.098;7.582;2023-01-31T07:36:25;25.25;;;13.15;;
23590;SDS011;11973;52.098;7.582;2023-01-31T07:38:55;27.27;;;14.10;;
23590;SDS011;11973;52.098;7.582;2023-01-31T07:41:22;32.30;;;13.80;;
23590;SDS011;11973;52.098;7.582;2023-01-31T07:43:49;27.33;;;13.45;;
23590;SDS011;11973;52.098;7.582;2023-01-31T07:46:15;27.35;;;13.95;;
23590;SDS011;11973;52.098;7.582;2023-01-31T07:48:41;28.80;;;13.90;;
23590;SDS011;11973;52.098;7.582;2023-01-31T07:51:07;30.40;;;13.98;;
23590;SDS011;11973;52.098;7.582;2023-01-31T07:53:35;28.95;;;14.20;;
23590;SDS011;11973;52.098;7.582;2023-01-31T07:58:34;31.75;;;15.27;;
23590;SDS011;11973;52.098;7.582;2023-01-31T08:01:00;27.58;;;14.98;;
23590;SDS011;11973;52.098;7.582;2023-01-31T08:03:45;26.10;;;13.93;;
23590;SDS011;11973;52.098;7.582;2023-01-31T08:06:11;27.60;;;14.73;;
23590;SDS011;11973;52.098;7.582;2023-01-31T08:08:38;31.65;;;14.15;;
23590;SDS011;11973;52.098;7.582;2023-01-31T08:11:05;27.27;;;14.32;;
23590;SDS011;11973;52.098;7.582;2023-01-31T08:13:32;26.67;;;13.70;;
23590;SDS011;11973;52.098;7.582;2023-01-31T08:15:59;30.08;;;13.43;;
23590;SDS011;11973;52.098;7.582;2023-01-31T08:18:26;25.48;;;13.40;;
23590;SDS011;11973;52.098;7.582;2023-01-31T08:20:52;26.13;;;12.20;;
23590;SDS011;11973;52.098;7.582;2023-01-31T08:23:17;21.35;;;11.55;;
23590;SDS011;11973;52.098;7.582;2023-01-31T08:25:43;20.83;;;10.75;;
23590;SDS011;11973;52.098;7.582;2023-01-31T08:28:09;18.83;;;10.88;;
23590;SDS011;11973;52.098;7.582;2023-01-31T08:30:38;18.73;;;10.15;;
23590;SDS011;11973;52.098;7.582;2023-01-31T08:33:06;20.38;;;10.80;;
23590;SDS011;11973;52.098;7.582;2023-01-31T08:35:32;21.13;;;11.25;;
23590;SDS011;11973;52.098;7.582;2023-01-31T08:37:58;19.75;;;11.35;;
23590;SDS011;11973;52.098;7.582;2023-01-31T08:40:24;23.67;;;11.35;;
23590;SDS011;11973;52.098;7.582;2023-01-31T08:42:56;21.67;;;11.38;;
23590;SDS011;11973;52.098;7.582;2023-01-31T08:45:23;18.45;;;10.15;;
23590;SDS011;11973;52.098;7.582;2023-01-31T08:47:56;23.65;;;11.35;;
23590;SDS011;11973;52.098;7.582;2023-01-31T08:50:23;20.58;;;10.57;;
23590;SDS011;11973;52.098;7.582;2023-01-31T08:52:54;23.63;;;10.43;;
23590;SDS011;11973;52.098;7.582;2023-01-31T08:55:24;13.15;;;8.63;;
23590;SDS011;11973;52.098;7.582;2023-01-31T08:57:51;20.30;;;9.70;;
23590;SDS011;11973;52.098;7.582;2023-01-31T09:00:18;17.15;;;9.38;;
23590;SDS011;11973;52.098;7.582;2023-01-31T09:02:46;21.13;;;10.05;;
23590;SDS011;11973;52.098;7.582;2023-01-31T09:05:25;17.35;;;9.40;;
23590;SDS011;11973;52.098;7.582;2023-01-31T09:07:53;12.27;;;8.38;;
23590;SDS011;11973;52.098;7.582;2023-01-31T09:10:20;18.98;;;9.25;;
23590;SDS011;11973;52.098;7.582;2023-01-31T09:12:46;24.65;;;9.50;;
23590;SDS011;11973;52.098;7.582;2023-01-31T09:15:12;21.75;;;8.65;;
23590;SDS011;11973;52.098;7.582;2023-01-31T09:17:38;18.83;;;8.80;;
23590;SDS011;11973;52.098;7.582;2023-01-31T09:20:05;19.85;;;8.82;;
23590;SDS011;11973;52.098;7.582;2023-01-31T09:22:33;18.35;;;8.65;;
23590;SDS011;11973;52.098;7.582;2023-01-31T09:24:59;16.45;;;8.68;;
23590;SDS011;11973;52.098;7.582;2023-01-31T09:27:26;16.13;;;8.15;;
23590;SDS011;11973;52.098;7.582;2023-01-31T09:29:52;14.10;;;8.25;;
23590;SDS011;11973;52.098;7.582;2023-01-31T09:32:17;15.80;;;7.95;;
23590;SDS011;11973;52.098;7.582;2023-01-31T09:34:44;18.38;;;8.90;;
23590;SDS011;11973;52.098;7.582;2023-01-31T09:37:12;17.25;;;8.65;;
23590;SDS011;11973;52.098;7.582;2023-01-31T09:39:38;17.52;;;8.60;;
23590;SDS011;11973;52.098;7.582;2023-01-31T09:42:17;17.75;;;9.52;;
23590;SDS011;11973;52.098;7.582;2023-01-31T09:45:05;14.65;;;8.23;;
23590;SDS011;11973;52.098;7.582;2023-01-31T09:47:38;20.40;;;9.48;;
23590;SDS011;11973;52.098;7.582;2023-01-31T09:50:17;17.05;;;8.60;;
23590;SDS011;11973;52.098;7.582;2023-01-31T09:52:44;19.60;;;8.63;;
23590;SDS011;11973;52.098;7.582;2023-01-31T09:55:17;18.05;;;9.00;;
23590;SDS011;11973;52.098;7.582;2023-01-31T09:58:06;19.17;;;9.50;;
23590;SDS011;11973;52.098;7.582;2023-01-31T10:00:45;17.02;;;8.77;;
23590;SDS011;11973;52.098;7.582;2023-01-31T10:09:34;16.45;;;8.80;;
23590;SDS011;11973;52.098;7.582;2023-01-31T10:12:28;19.00;;;9.48;;
23590;SDS011;11973;52.098;7.582;2023-01-31T10:14:59;15.25;;;8.70;;
23590;SDS011;11973;52.098;7.582;2023-01-31T10:17:41;21.10;;;8.45;;
23590;SDS011;11973;52.098;7.582;2023-01-31T10:20:20;15.93;;;8.98;;
23590;SDS011;11973;52.098;7.582;2023-01-31T10:26:00;18.77;;;8.65;;
23590;SDS011;11973;52.098;7.582;2023-01-31T10:31:33;16.17;;;8.07;;
23590;SDS011;11973;52.098;7.582;2023-01-31T10:34:22;18.27;;;8.50;;
23590;SDS011;11973;52.098;7.582;2023-01-31T10:39:51;12.93;;;7.88;;
23590;SDS011;11973;52.098;7.582;2023-01-31T10:42:31;14.55;;;8.35;;
23590;SDS011;11973;52.098;7.582;2023-01-31T10:45:09;15.20;;;8.38;;
23590;SDS011;11973;52.098;7.582;2023-01-31T10:50:17;12.95;;;7.93;;
23590;SDS011;11973;52.098;7.582;2023-01-31T10:59:04;15.45;;;8.48;;
23590;SDS011;11973;52.098;7.582;2023-01-31T11:01:35;15.68;;;8.43;;
23590;SDS011;11973;52.098;7.582;2023-01-31T11:04:01;14.38;;;7.28;;
23590;SDS011;11973;52.098;7.582;2023-01-31T11:06:30;16.45;;;8.25;;
23590;SDS011;11973;52.098;7.582;2023-01-31T11:08:57;17.75;;;8.55;;
23590;SDS011;11973;52.098;7.582;2023-01-31T11:11:25;12.73;;;7.88;;
23590;SDS011;11973;52.098;7.582;2023-01-31T11:16:35;12.23;;;8.48;;
23590;SDS011;11973;52.098;7.582;2023-01-31T11:19:04;12.35;;;7.50;;
23590;SDS011;11973;52.098;7.582;2023-01-31T11:21:49;10.55;;;7.60;;
23590;SDS011;11973;52.098;7.582;2023-01-31T11:24:18;13.80;;;8.48;;
23590;SDS011;11973;52.098;7.582;2023-01-31T11:26:52;13.95;;;7.95;;
23590;SDS011;11973;52.098;7.582;2023-01-31T11:29:30;21.00;;;8.88;;
23590;SDS011;11973;52.098;7.582;2023-01-31T11:32:18;19.63;;;8.80;;
23590;SDS011;11973;52.098;7.582;2023-01-31T11:35:00;11.50;;;8.10;;
23590;SDS011;11973;52.098;7.582;2023-01-31T11:37:30;20.73;;;8.98;;
23590;SDS011;11973;52.098;7.582;2023-01-31T11:39:58;13.23;;;8.05;;
23590;SDS011;11973;52.098;7.582;2023-01-31T11:42:55;14.38;;;8.68;;
23590;SDS011;11973;52.098;7.582;2023-01-31T11:45:53;12.68;;;8.38;;
23590;SDS011;11973;52.098;7.582;2023-01-31T11:48:35;15.95;;;8.48;;
23590;SDS011;11973;52.098;7.582;2023-01-31T11:51:08;13.52;;;8.32;;
23590;SDS011;11973;52.098;7.582;2023-01-31T11:56:18;21.75;;;9.30;;
23590;SDS011;11973;52.098;7.582;2023-01-31T11:58:48;15.15;;;8.90;;
23590;SDS011;11973;52.098;7.582;2023-01-31T12:01:18;18.38;;;8.45;;
23590;SDS011;11973;52.098;7.582;2023-01-31T12:03:56;13.55;;;8.77;;
23590;SDS011;11973;52.098;7.582;2023-01-31T12:06:28;17.90;;;8.65;;
23590;SDS011;11973;52.098;7.582;2023-01-31T12:08:58;19.30;;;8.48;;
23590;SDS011;11973;52.098;7.582;2023-01-31T12:14:08;13.88;;;7.50;;
23590;SDS011;11973;52.098;7.582;2023-01-31T12:16:38;13.43;;;8.07;;
23590;SDS011;11973;52.098;7.582;2023-01-31T12:24:47;16.65;;;9.40;;
23590;SDS011;11973;52.098;7.582;2023-01-31T12:27:33;18.13;;;9.00;;
23590;SDS011;11973;52.098;7.582;2023-01-31T12:33:02;16.02;;;9.18;;
23590;SDS011;11973;52.098;7.582;2023-01-31T12:41:36;14.77;;;10.27;;
23590;SDS011;11973;52.098;7.582;2023-01-31T12:54:43;20.88;;;12.40;;
23590;SDS011;11973;52.098;7.582;2023-01-31T12:57:23;18.27;;;13.18;;
23590;SDS011;11973;52.098;7.582;2023-01-31T13:00:12;15.40;;;12.75;;
23590;SDS011;11973;52.098;7.582;2023-01-31T13:05:53;17.70;;;12.90;;
23590;SDS011;11973;52.098;7.582;2023-01-31T13:08:26;24.77;;;14.30;;
23590;SDS011;11973;52.098;7.582;2023-01-31T13:10:57;19.88;;;14.13;;
23590;SDS011;11973;52.098;7.582;2023-01-31T13:13:41;22.30;;;15.13;;
23590;SDS011;11973;52.098;7.582;2023-01-31T13:16:21;19.02;;;15.38;;
23590;SDS011;11973;52.098;7.582;2023-01-31T13:18:49;24.17;;;16.30;;
23590;SDS011;11973;52.098;7.582;2023-01-31T13:21:40;19.50;;;14.95;;
23590;SDS011;11973;52.098;7.582;2023-01-31T13:24:11;18.83;;;15.50;;
23590;SDS011;11973;52.098;7.582;2023-01-31T13:26:57;22.08;;;16.42;;
23590;SDS011;11973;52.098;7.582;2023-01-31T13:29:34;19.45;;;15.65;;
23590;SDS011;11973;52.098;7.582;2023-01-31T13:32:35;20.35;;;15.52;;
23590;SDS011;11973;52.098;7.582;2023-01-31T13:37:38;19.17;;;15.27;;
23590;SDS011;11973;52.098;7.582;2023-01-31T13:40:25;16.80;;;15.10;;
23590;SDS011;11973;52.098;7.582;2023-01-31T13:42:56;18.05;;;14.73;;
23590;SDS011;11973;52.098;7.582;2023-01-31T13:45:29;15.77;;;14.38;;
23590;SDS011;11973;52.098;7.582;2023-01-31T13:48:19;15.93;;;14.45;;
23590;SDS011;11973;52.098;7.582;2023-01-31T13:51:02;15.40;;;13.85;;
23590;SDS011;11973;52.098;7.582;2023-01-31T13:53:35;15.57;;;14.00;;
23590;SDS011;11973;52.098;7.582;2023-01-31T13:56:08;15.75;;;14.30;;
23590;SDS011;11973;52.098;7.582;2023-01-31T13:58:37;15.68;;;14.18;;
23590;SDS011;11973;52.098;7.582;2023-01-31T14:01:20;14.52;;;13.32;;
23590;SDS011;11973;52.098;7.582;2023-01-31T14:11:51;14.10;;;12.80;;
23590;SDS011;11973;52.098;7.582;2023-01-31T14:14:22;14.82;;;13.10;;
23590;SDS011;11973;52.098;7.582;2023-01-31T14:16:52;13.82;;;12.63;;
23590;SDS011;11973;52.098;7.582;2023-01-31T14:27:18;14.55;;;13.25;;
23590;SDS011;11973;52.098;7.582;2023-01-31T14:29:49;15.52;;;13.52;;
23590;SDS011;11973;52.098;7.582;2023-01-31T14:32:28;17.75;;;14.15;;
23590;SDS011;11973;52.098;7.582;2023-01-31T14:40:19;14.80;;;13.40;;
23590;SDS011;11973;52.098;7.582;2023-01-31T14:46:11;13.90;;;12.50;;
23590;SDS011;11973;52.098;7.582;2023-01-31T14:57:48;13.82;;;11.82;;
23590;SDS011;11973;52.098;7.582;2023-01-31T15:00:22;13.55;;;11.07;;
23590;SDS011;11973;52.098;7.582;2023-01-31T15:03:01;13.93;;;11.15;;
23590;SDS011;11973;52.098;7.582;2023-01-31T15:07:57;11.90;;;10.75;;
23590;SDS011;11973;52.098;7.582;2023-01-31T15:18:58;12.50;;;10.52;;
23590;SDS011;11973;52.098;7.582;2023-01-31T15:21:35;13.05;;;11.00;;
23590;SDS011;11973;52.098;7.582;2023-01-31T15:27:14;12.00;;;10.88;;
23590;SDS011;11973;52.098;7.582;2023-01-31T15:35:43;13.85;;;10.63;;
23590;SDS011;11973;52.098;7.582;2023-01-31T15:43:43;13.45;;;9.88;;
23590;SDS011;11973;52.098;7.582;2023-01-31T15:46:29;14.57;;;10.52;;
23590;SDS011;11973;52.098;7.582;2023-01-31T15:48:57;12.35;;;10.10;;
23590;SDS011;11973;52.098;7.582;2023-01-31T15:51:23;14.45;;;9.90;;
23590;SDS011;11973;52.098;7.582;2023-01-31T15:54:03;13.68;;;8.93;;
23590;SDS011;11973;52.098;7.582;2023-01-31T15:56:31;11.30;;;8.98;;
23590;SDS011;11973;52.098;7.582;2023-01-31T15:59:01;10.70;;;8.38;;
23590;SDS011;11973;52.098;7.582;2023-01-31T16:01:34;11.43;;;8.35;;
23590;SDS011;11973;52.098;7.582;2023-01-31T16:04:01;11.40;;;8.38;;
23590;SDS011;11973;52.098;7.582;2023-01-31T16:06:33;11.52;;;8.20;;
23590;SDS011;11973;52.098;7.582;2023-01-31T16:09:03;16.80;;;7.90;;
23590;SDS011;11973;52.098;7.582;2023-01-31T16:11:31;14.35;;;8.90;;
23590;SDS011;11973;52.098;7.582;2023-01-31T16:13:59;14.73;;;7.82;;
23590;SDS011;11973;52.098;7.582;2023-01-31T16:16:27;13.98;;;7.47;;
23590;SDS011;11973;52.098;7.582;2023-01-31T16:18:56;14.55;;;8.02;;
23590;SDS011;11973;52.098;7.582;2023-01-31T16:26:26;11.55;;;6.82;;
23590;SDS011;11973;52.098;7.582;2023-01-31T16:28:56;16.65;;;7.38;;
23590;SDS011;11973;52.098;7.582;2023-01-31T16:31:25;11.32;;;7.55;;
23590;SDS011;11973;52.098;7.582;2023-01-31T16:33:57;14.60;;;6.82;;
23590;SDS011;11973;52.098;7.582;2023-01-31T16:36:32;13.85;;;7.00;;
23590;SDS011;11973;52.098;7.582;2023-01-31T16:44:40;9.35;;;4.90;;
23590;SDS011;11973;52.098;7.582;2023-01-31T16:52:41;9.63;;;4.82;;
23590;SDS011;11973;52.098;7.582;2023-01-31T16:55:19;11.02;;;4.38;;
23590;SDS011;11973;52.098;7.582;2023-01-31T16:57:46;9.40;;;4.10;;
23590;SDS011;11973;52.098;7.582;2023-01-31T17:02:52;7.88;;;4.13;;
23590;SDS011;11973;52.098;7.582;2023-01-31T17:07:51;8.98;;;3.58;;
23590;SDS011;11973;52.098;7.582;2023-01-31T17:12:51;8.95;;;4.10;;
23590;SDS011;11973;52.098;7.582;2023-01-31T17:15:23;7.68;;;3.80;;
23590;SDS011;11973;52.098;7.582;2023-01-31T17:17:48;8.70;;;3.70;;
23590;SDS011;11973;52.098;7.582;2023-01-31T17:20:15;9.35;;;3.30;;
23590;SDS011;11973;52.098;7.582;2023-01-31T17:22:42;7.68;;;2.88;;
23590;SDS011;11973;52.098;7.582;2023-01-31T17:25:18;11.48;;;3.10;;
23590;SDS011;11973;52.098;7.582;2023-01-31T17:27:46;9.48;;;3.53;;
23590;SDS011;11973;52.098;7.582;2023-01-31T17:30:13;7.47;;;3.25;;
23590;SDS011;11973;52.098;7.582;2023-01-31T17:32:40;10.15;;;2.97;;
23590;SDS011;11973;52.098;7.582;2023-01-31T17:35:16;9.32;;;3.33;;
23590;SDS011;11973;52.098;7.582;2023-01-31T17:37:45;8.48;;;2.63;;
23590;SDS011;11973;52.098;7.582;2023-01-31T17:40:11;10.55;;;2.63;;
23590;SDS011;11973;52.098;7.582;2023-01-31T17:42:37;11.38;;;3.22;;
23590;SDS011;11973;52.098;7.582;2023-01-31T17:45:03;7.10;;;3.45;;
23590;SDS011;11973;52.098;7.582;2023-01-31T17:47:30;8.45;;;2.72;;
23590;SDS011;11973;52.098;7.582;2023-01-31T17:49:56;7.80;;;3.38;;
23590;SDS011;11973;52.098;7.582;2023-01-31T17:52:22;10.23;;;3.53;;
23590;SDS011;11973;52.098;7.582;2023-01-31T17:54:48;9.98;;;3.45;;
23590;SDS011;11973;52.098;7.582;2023-01-31T17:57:14;10.50;;;3.95;;
23590;SDS011;11973;52.098;7.582;2023-01-31T17:59:40;14.93;;;5.05;;
23590;SDS011;11973;52.098;7.582;2023-01-31T18:02:05;12.82;;;3.53;;
23590;SDS011;11973;52.098;7.582;2023-01-31T18:04:31;10.20;;;3.55;;
23590;SDS011;11973;52.098;7.582;2023-01-31T18:06:57;8.13;;;3.00;;
23590;SDS011;11973;52.098;7.582;2023-01-31T18:09:23;12.80;;;3.88;;
23590;SDS011;11973;52.098;7.582;2023-01-31T18:11:50;9.73;;;3.30;;
23590;SDS011;11973;52.098;7.582;2023-01-31T18:14:16;9.20;;;3.25;;
23590;SDS011;11973;52.098;7.582;2023-01-31T18:16:41;11.70;;;3.15;;
23590;SDS011;11973;52.098;7.582;2023-01-31T18:19:07;10.55;;;3.90;;
23590;SDS011;11973;52.098;7.582;2023-01-31T18:21:33;11.80;;;3.80;;
23590;SDS011;11973;52.098;7.582;2023-01-31T18:23:59;9.63;;;2.97;;
23590;SDS011;11973;52.098;7.582;2023-01-31T18:26:26;12.82;;;3.50;;
23590;SDS011;11973;52.098;7.582;2023-01-31T18:28:52;10.52;;;3.20;;
23590;SDS011;11973;52.098;7.582;2023-01-31T18:31:21;11.98;;;3.58;;
23590;SDS011;11973;52.098;7.582;2023-01-31T18:33:47;12.55;;;3.85;;
23590;SDS011;11973;52.098;7.582;2023-01-31T18:36:17;8.73;;;3.35;;
23590;SDS011;11973;52.098;7.582;2023-01-31T18:38:44;14.88;;;4.60;;
23590;SDS011;11973;52.098;7.582;2023-01-31T18:41:12;13.63;;;3.70;;
23590;SDS011;11973;52.098;7.582;2023-01-31T18:43:39;9.57;;;3.13;;
23590;SDS011;11973;52.098;7.582;2023-01-31T18:46:05;9.23;;;3.65;;
23590;SDS011;11973;52.098;7.582;2023-01-31T18:48:31;13.20;;;3.53;;
23590;SDS011;11973;52.098;7.582;2023-01-31T18:50:59;10.73;;;3.40;;